Time;durP1;ratioP1;P1;durP2;ratioP2;P2;SDS_P1;SDS_P2;PMS_P1;PMS_P2;Temp;Humidity;BMP_temperature;BMP_pressure;BME280_temperature;BME280_humidity;BME280_pressure;Samples;Min_cycle;Max_cycle;Signal;HPM_P1;HPM_P2
2023/09/25 00:01:25;;;;;;;5.63;2.88;;;;;;;13.63;86.97;102104.78;6120984;19;20843;-78
2023/09/25 00:03:35;;;;;;;4.40;2.42;;;;;;;13.73;86.36;102097.41;6122647;19;20017;-77
2023/09/25 00:05:44;;;;;;;5.70;2.92;;;;;;;13.66;87.09;102094.09;6121501;19;20023;-77
2023/09/25 00:07:48;;;;;;;5.85;2.97;;;;;;;13.66;87.06;102093.25;6116356;19;20045;-78
2023/09/25 00:09:58;;;;;;;8.05;3.40;;;;;;;13.66;87.11;102093.25;6101440;19;20075;-77
2023/09/25 00:12:11;;;;;;;6.10;2.75;;;;;;;13.73;86.16;102105.34;6106942;19;20605;-77
2023/09/25 00:14:19;;;;;;;7.60;2.97;;;;;;;13.71;86.53;102104.53;6086264;19;20469;-77
2023/09/25 00:16:23;;;;;;;8.85;2.95;;;;;;;13.75;85.87;102104.38;6107764;19;20020;-77
2023/09/25 00:18:31;;;;;;;5.60;2.95;;;;;;;13.73;86.12;102102.69;6108107;19;20015;-78
2023/09/25 00:20:41;;;;;;;6.85;2.88;;;;;;;13.75;85.51;102107.00;6088300;19;20459;-77
2023/09/25 00:22:50;;;;;;;6.03;2.95;;;;;;;13.78;85.06;102103.41;6108042;19;20024;-77
2023/09/25 00:24:58;;;;;;;6.05;2.60;;;;;;;13.87;84.12;102105.72;6107421;19;20018;-77
2023/09/25 00:27:04;;;;;;;7.57;3.25;;;;;;;13.87;84.64;102100.44;6106649;19;20026;-77
2023/09/25 00:29:09;;;;;;;4.93;2.70;;;;;;;13.85;84.05;102097.00;6108087;19;20398;-76
2023/09/25 00:31:12;;;;;;;8.38;3.15;;;;;;;13.83;84.02;102094.41;6106324;19;20015;-76
2023/09/25 00:33:19;;;;;;;8.32;2.95;;;;;;;13.83;84.16;102094.41;6106141;19;20046;-77
2023/09/25 00:35:24;;;;;;;5.22;2.72;;;;;;;13.82;83.92;102092.69;6105415;19;20007;-77
2023/09/25 00:37:34;;;;;;;7.28;3.20;;;;;;;13.84;84.15;102090.84;6105704;19;20372;-77
2023/09/25 00:39:37;;;;;;;7.90;3.55;;;;;;;13.81;84.38;102098.03;6107795;19;20034;-77
2023/09/25 00:41:42;;;;;;;9.85;2.90;;;;;;;13.81;83.82;102090.09;6103358;19;20017;-77
2023/09/25 00:43:47;;;;;;;6.20;3.05;;;;;;;13.76;84.48;102086.75;6106124;19;20018;-77
2023/09/25 00:45:50;;;;;;;6.38;2.92;;;;;;;13.73;84.81;102089.50;6102267;19;20010;-77
2023/09/25 00:47:57;;;;;;;7.90;2.78;;;;;;;13.70;84.87;102087.81;6104463;19;20405;-77
2023/09/25 00:50:04;;;;;;;6.60;2.80;;;;;;;13.70;84.96;102092.25;6103976;19;20045;-77
2023/09/25 00:52:12;;;;;;;5.93;2.75;;;;;;;13.73;84.31;102084.22;6103953;19;20046;-77
2023/09/25 00:54:20;;;;;;;6.30;2.80;;;;;;;13.67;84.93;102081.78;6106579;19;20289;-77
2023/09/25 00:56:45;;;;;;;8.57;3.28;;;;;;;13.64;85.22;102082.75;6083924;19;20027;-79
2023/09/25 00:58:50;;;;;;;6.93;2.58;;;;;;;13.60;85.47;102078.47;6107024;19;20070;-78
2023/09/25 01:00:58;;;;;;;6.63;3.03;;;;;;;13.64;85.03;102079.22;6106824;19;20031;-78
2023/09/25 01:03:28;;;;;;;;;;;;;;;;;;;;;
2023/09/25 01:05:40;;;;;;;6.70;2.85;;;;;;;13.65;84.73;102078.31;6105080;19;20013;-78
2023/09/25 01:07:47;;;;;;;5.88;2.92;;;;;;;13.67;84.34;102080.00;6106585;19;20078;-76
2023/09/25 01:10:09;;;;;;;5.72;2.67;;;;;;;13.63;84.23;102082.78;6104602;19;20087;-78
2023/09/25 01:12:14;;;;;;;7.25;2.63;;;;;;;13.58;84.62;102078.50;6104204;19;20619;-77
2023/09/25 01:14:19;;;;;;;4.43;3.08;;;;;;;13.57;84.81;102081.22;6106690;19;20098;-78
2023/09/25 01:16:26;;;;;;;7.70;2.70;;;;;;;13.56;84.71;102085.63;6104680;19;20398;-77
2023/09/25 01:18:33;;;;;;;5.97;2.42;;;;;;;13.51;85.15;102082.28;6105354;19;20042;-77
2023/09/25 01:20:40;;;;;;;8.05;2.63;;;;;;;13.48;85.43;102078.84;6102943;19;20011;-77
2023/09/25 01:22:50;;;;;;;6.25;2.72;;;;;;;13.51;85.54;102082.28;6104614;19;20428;-78
2023/09/25 01:24:55;;;;;;;8.15;2.50;;;;;;;13.39;86.05;102091.44;6086971;19;20459;-76
2023/09/25 01:26:59;;;;;;;5.78;3.20;;;;;;;13.40;85.90;102087.03;6102885;19;20011;-76
2023/09/25 01:29:04;;;;;;;6.50;2.97;;;;;;;13.50;85.25;102082.31;6103484;19;20012;-76
2023/09/25 01:31:09;;;;;;;6.10;2.80;;;;;;;13.43;85.88;102084.31;6106682;19;20022;-79
2023/09/25 01:33:17;;;;;;;7.55;2.88;;;;;;;13.38;86.04;102086.25;6106615;19;20500;-76
2023/09/25 01:35:26;;;;;;;5.68;3.03;;;;;;;13.39;86.19;102080.91;6107700;19;20007;-77
2023/09/25 01:37:31;;;;;;;4.88;2.70;;;;;;;13.39;86.23;102074.75;6104018;19;20402;-77
2023/09/25 01:39:40;;;;;;;7.45;2.92;;;;;;;13.35;86.57;102074.00;6088597;19;20011;-78
2023/09/25 01:41:45;;;;;;;7.07;3.53;;;;;;;13.33;86.51;102078.47;6085051;19;20002;-77
2023/09/25 01:43:54;;;;;;;5.57;2.60;;;;;;;13.38;86.70;102075.69;6098694;19;20007;-75
2023/09/25 01:46:00;;;;;;;4.25;2.53;;;;;;;13.32;86.45;102073.22;6103673;19;20032;-78
2023/09/25 01:48:05;;;;;;;6.35;2.70;;;;;;;13.35;86.35;102076.66;6104229;19;20050;-77
2023/09/25 01:50:11;;;;;;;7.78;3.17;;;;;;;13.26;87.21;102071.63;6086033;19;20010;-77
2023/09/25 01:52:17;;;;;;;8.23;3.20;;;;;;;13.27;87.32;102083.06;6106525;19;20010;-79
2023/09/25 01:54:22;;;;;;;5.53;2.60;;;;;;;13.21;87.57;102068.25;6104977;19;20014;-78
2023/09/25 01:56:32;;;;;;;4.18;2.40;;;;;;;13.25;87.71;102072.53;6105319;19;20018;-78
2023/09/25 01:58:37;;;;;;;5.03;2.40;;;;;;;13.27;87.47;102072.50;6109126;19;20011;-78
2023/09/25 02:00:44;;;;;;;5.68;2.70;;;;;;;13.22;87.75;102071.75;6104647;19;20541;-80
2023/09/25 02:02:49;;;;;;;8.20;3.42;;;;;;;13.23;87.89;102070.84;6086784;19;20011;-76
2023/09/25 02:04:55;;;;;;;7.93;3.00;;;;;;;13.12;88.70;102074.69;6107619;19;20018;-78
2023/09/25 02:07:01;;;;;;;6.05;2.65;;;;;;;13.11;88.82;102065.06;6100853;19;20074;-78
2023/09/25 02:09:07;;;;;;;7.45;2.63;;;;;;;13.13;88.51;102057.94;6103753;19;20013;-76
2023/09/25 02:11:11;;;;;;;6.43;2.58;;;;;;;13.18;88.06;102058.66;6105211;19;20014;-77
2023/09/25 02:13:19;;;;;;;6.45;2.60;;;;;;;13.12;88.45;102050.94;6105176;19;20372;-78
2023/09/25 02:15:24;;;;;;;9.40;2.97;;;;;;;13.09;88.71;102047.53;6106900;19;20042;-77
2023/09/25 02:17:29;;;;;;;7.88;3.03;;;;;;;13.12;88.71;102044.81;6107071;19;20011;-76
2023/09/25 02:19:34;;;;;;;6.72;3.03;;;;;;;13.14;88.54;102041.22;6106946;19;20011;-77
2023/09/25 02:21:39;;;;;;;9.85;3.17;;;;;;;13.15;88.60;102035.00;6106281;19;20011;-76
2023/09/25 02:23:44;;;;;;;7.18;3.00;;;;;;;13.13;88.56;102030.69;6104579;19;20378;-78
2023/09/25 02:25:49;;;;;;;6.25;2.70;;;;;;;13.12;88.91;102027.19;6104308;19;20107;-78
2023/09/25 02:27:57;;;;;;;5.50;3.10;;;;;;;13.10;88.75;102023.72;6105792;19;20010;-77
2023/09/25 02:30:03;;;;;;;7.40;3.22;;;;;;;13.10;88.83;102026.38;6106493;19;20014;-79
2023/09/25 02:32:08;;;;;;;7.43;2.83;;;;;;;13.09;88.66;102034.34;6105683;19;20581;-78
2023/09/25 02:34:14;;;;;;;6.05;3.00;;;;;;;13.06;88.71;102040.59;6105475;19;20081;-79
2023/09/25 02:36:21;;;;;;;6.07;2.70;;;;;;;13.05;89.15;102030.06;6104609;19;20027;-75
2023/09/25 02:38:29;;;;;;;5.28;2.50;;;;;;;13.06;89.18;102037.94;6104221;19;20468;-76
2023/09/25 02:40:34;;;;;;;7.25;2.80;;;;;;;13.04;89.11;102038.91;6104489;19;20261;-76
2023/09/25 02:42:40;;;;;;;5.38;2.70;;;;;;;13.02;89.41;102040.72;6102592;19;20015;-76
2023/09/25 02:44:48;;;;;;;5.82;2.60;;;;;;;13.09;89.16;102037.00;6104912;19;20011;-76
2023/09/25 02:47:00;;;;;;;7.78;3.00;;;;;;;13.04;89.17;102031.84;6106182;19;20569;-76
2023/09/25 02:49:07;;;;;;;7.80;2.83;;;;;;;13.02;89.12;102038.09;6083224;19;20013;-76
2023/09/25 02:51:20;;;;;;;7.32;3.45;;;;;;;13.00;89.61;102027.56;6103921;19;20046;-77
2023/09/25 02:53:25;;;;;;;7.35;2.50;;;;;;;13.01;88.96;102036.38;6105204;19;20014;-77
2023/09/25 02:55:32;;;;;;;8.15;2.90;;;;;;;13.04;89.09;102029.22;6108886;19;20011;-76
2023/09/25 02:57:37;;;;;;;9.52;3.20;;;;;;;13.09;88.91;102029.06;6109400;19;20027;-76
2023/09/25 02:59:42;;;;;;;7.60;2.72;;;;;;;13.06;88.79;102032.66;6092480;19;20002;-77
2023/09/25 03:01:47;;;;;;;7.05;2.97;;;;;;;13.08;88.55;102032.59;6112227;19;20014;-76
2023/09/25 03:03:54;;;;;;;5.85;2.80;;;;;;;13.10;88.54;102031.66;6115482;19;20061;-76
2023/09/25 03:05:59;;;;;;;7.00;3.22;;;;;;;13.08;89.01;102029.97;6114850;19;20046;-76
2023/09/25 03:08:05;;;;;;;8.05;2.75;;;;;;;13.02;88.79;102028.38;6111938;19;20019;-77
2023/09/25 03:10:11;;;;;;;6.18;3.30;;;;;;;13.03;89.41;102030.09;6108247;19;20025;-76
2023/09/25 03:12:13;;;;;;;6.18;3.05;;;;;;;12.98;89.13;102034.69;6109258;19;20118;-77
2023/09/25 03:14:21;;;;;;;4.57;2.63;;;;;;;13.00;89.60;102032.84;6103751;19;20029;-79
2023/09/25 03:16:27;;;;;;;6.13;2.80;;;;;;;12.94;89.55;102028.63;6102743;19;20013;-77
2023/09/25 03:18:35;;;;;;;7.93;3.13;;;;;;;12.98;89.58;102032.06;6102667;19;20007;-78
2023/09/25 03:20:43;;;;;;;5.93;2.78;;;;;;;12.92;89.89;102034.88;6087752;19;20361;-75
2023/09/25 03:22:48;;;;;;;6.68;2.88;;;;;;;12.92;90.33;102034.88;6109693;19;20030;-76
2023/09/25 03:24:56;;;;;;;6.47;2.75;;;;;;;12.95;89.78;102040.03;6107061;19;20090;-77
2023/09/25 03:27:01;;;;;;;8.15;3.28;;;;;;;12.94;89.68;102033.03;6109475;19;20140;-78
2023/09/25 03:29:07;;;;;;;9.85;3.10;;;;;;;12.93;90.03;102029.56;6106025;19;20006;-77
2023/09/25 03:31:12;;;;;;;9.07;3.35;;;;;;;12.90;90.33;102021.75;6105844;19;20015;-76
2023/09/25 03:33:21;;;;;;;6.10;2.60;;;;;;;12.87;90.21;102026.22;6109068;19;20039;-77
2023/09/25 03:35:33;;;;;;;8.45;3.45;;;;;;;12.88;90.83;102034.09;6085290;19;20020;-76
2023/09/25 03:37:42;;;;;;;7.20;3.10;;;;;;;12.86;90.24;102037.69;6098537;19;20018;-77
2023/09/25 03:39:51;;;;;;;9.00;3.30;;;;;;;12.85;90.84;102028.94;6107549;19;20023;-78
2023/09/25 03:41:58;;;;;;;6.93;3.28;;;;;;;12.88;90.58;102043.81;6108231;19;20522;-78
2023/09/25 03:44:04;;;;;;;6.20;2.95;;;;;;;12.80;91.14;102035.25;6107553;19;20098;-77
2023/09/25 03:46:09;;;;;;;8.70;3.10;;;;;;;12.84;90.64;102036.88;6109348;19;20440;-76
2023/09/25 03:48:15;;;;;;;8.88;2.95;;;;;;;12.84;90.72;102036.88;6085391;19;20042;-78
2023/09/25 03:50:20;;;;;;;5.90;2.97;;;;;;;12.85;90.79;102043.88;6107902;19;20113;-78
2023/09/25 03:52:27;;;;;;;7.00;2.78;;;;;;;12.83;90.76;102037.81;6107502;19;20625;-77
2023/09/25 03:54:34;;;;;;;10.32;3.38;;;;;;;12.87;90.48;102042.91;6108850;19;20088;-77
2023/09/25 03:56:39;;;;;;;5.35;3.20;;;;;;;12.83;90.96;102045.72;6107596;19;20023;-78
2023/09/25 03:58:44;;;;;;;5.22;2.65;;;;;;;12.89;90.37;102054.28;6107695;19;20010;-80
2023/09/25 04:00:52;;;;;;;7.38;3.25;;;;;;;12.83;90.72;102058.91;6107823;19;20007;-77
2023/09/25 04:03:00;;;;;;;5.40;2.80;;;;;;;12.83;90.42;102057.13;6107979;19;20037;-77
2023/09/25 04:05:06;;;;;;;5.63;2.65;;;;;;;12.85;90.37;102062.34;6106754;19;20011;-77
2023/09/25 04:07:11;;;;;;;6.93;2.65;;;;;;;12.86;90.42;102058.81;6108784;19;20078;-78
2023/09/25 04:09:16;;;;;;;5.53;2.40;;;;;;;12.84;90.28;102060.63;6107837;19;20013;-78
2023/09/25 04:11:24;;;;;;;7.38;2.85;;;;;;;12.84;90.11;102058.84;6109794;19;20380;-78
2023/09/25 04:13:29;;;;;;;7.65;3.67;;;;;;;12.80;91.15;102064.28;6107052;19;20007;-77
2023/09/25 04:15:35;;;;;;;5.30;2.80;;;;;;;12.80;90.43;102056.38;6107764;19;20026;-77
2023/09/25 04:17:39;;;;;;;7.22;3.00;;;;;;;12.82;90.57;102059.78;6106470;19;20010;-77
2023/09/25 04:19:44;;;;;;;7.22;3.33;;;;;;;12.86;90.37;102054.38;6107157;19;20367;-77
2023/09/25 04:21:52;;;;;;;10.73;3.35;;;;;;;12.81;90.49;102050.16;6066065;19;20071;-76
2023/09/25 04:24:10;;;;;;;7.20;2.85;;;;;;;12.90;90.26;102055.16;6105168;19;20352;-78
2023/09/25 04:26:16;;;;;;;4.18;2.70;;;;;;;12.81;90.79;102050.16;6107781;19;20021;-78
2023/09/25 04:28:26;;;;;;;6.57;2.55;;;;;;;12.86;90.23;102059.66;6105398;19;20003;-77
2023/09/25 04:30:35;;;;;;;8.00;2.90;;;;;;;12.81;90.63;102064.22;6103352;19;20086;-78
2023/09/25 04:32:43;;;;;;;7.60;3.40;;;;;;;12.84;90.48;102058.84;6104786;19;20374;-77
2023/09/25 04:34:48;;;;;;;6.45;3.05;;;;;;;12.83;90.44;102054.50;6106634;19;20488;-78
2023/09/25 04:36:54;;;;;;;7.07;3.10;;;;;;;12.83;90.44;102065.03;6105315;19;20014;-77
2023/09/25 04:39:01;;;;;;;5.60;2.75;;;;;;;12.87;89.79;102063.16;6107247;19;20485;-77
2023/09/25 04:41:06;;;;;;;8.38;3.00;;;;;;;12.78;90.67;102068.72;6106239;19;20039;-78
2023/09/25 04:43:12;;;;;;;7.30;3.17;;;;;;;12.74;90.89;102074.09;6086603;19;20792;-79
2023/09/25 04:45:20;;;;;;;7.85;2.85;;;;;;;12.76;90.76;102070.53;6104022;19;20764;-78
2023/09/25 04:47:25;;;;;;;6.10;3.10;;;;;;;12.76;90.64;102065.25;6105962;19;20077;-78
2023/09/25 04:49:30;;;;;;;7.72;3.60;;;;;;;12.74;90.69;102066.19;6105355;19;20009;-78
2023/09/25 04:51:37;;;;;;;6.38;2.72;;;;;;;12.74;90.68;102065.31;6106941;19;20038;-78
2023/09/25 04:53:42;;;;;;;7.38;3.33;;;;;;;12.69;90.80;102061.94;6105130;19;20106;-78
2023/09/25 04:55:47;;;;;;;6.10;2.72;;;;;;;12.74;90.40;102063.56;6106985;19;20018;-78
2023/09/25 04:57:54;;;;;;;6.50;2.90;;;;;;;12.73;90.58;102064.44;6105928;19;20032;-76
2023/09/25 04:59:59;;;;;;;6.13;2.75;;;;;;;12.77;90.21;102073.16;6105229;19;20011;-77
2023/09/25 05:02:06;;;;;;;6.95;3.45;;;;;;;12.73;90.24;102069.72;6107392;19;20085;-77
2023/09/25 05:04:12;;;;;;;7.15;3.47;;;;;;;12.66;90.81;102073.44;6108493;19;20014;-77
2023/09/25 05:06:19;;;;;;;9.13;3.38;;;;;;;12.62;91.17;102066.53;6104813;19;20463;-78
2023/09/25 05:08:26;;;;;;;8.30;3.13;;;;;;;12.67;90.96;102072.53;6103046;19;20015;-77
2023/09/25 05:10:32;;;;;;;5.90;2.90;;;;;;;12.71;90.95;102073.31;6100823;19;20102;-77
2023/09/25 05:12:37;;;;;;;5.13;2.75;;;;;;;12.65;91.15;102069.09;6107229;19;20401;-77
2023/09/25 05:14:42;;;;;;;6.28;3.20;;;;;;;12.65;91.01;102071.72;6108525;19;20397;-77
2023/09/25 05:16:51;;;;;;;6.88;3.22;;;;;;;12.67;90.74;102071.69;6109136;19;20065;-76
2023/09/25 05:18:59;;;;;;;8.43;3.25;;;;;;;12.77;90.18;102073.16;6109784;19;20335;-77
2023/09/25 05:21:04;;;;;;;7.78;3.22;;;;;;;12.72;90.36;102080.34;6099719;19;20017;-78
2023/09/25 05:23:10;;;;;;;6.88;3.10;;;;;;;12.66;90.90;102081.34;6108390;19;20030;-77
2023/09/25 05:25:13;;;;;;;5.32;2.53;;;;;;;12.63;91.08;102078.81;6108209;19;20023;-77
2023/09/25 05:27:18;;;;;;;7.18;3.42;;;;;;;12.71;90.76;102078.59;6105565;19;20138;-77
2023/09/25 05:29:23;;;;;;;9.13;3.13;;;;;;;12.61;91.15;102088.56;6106936;19;20038;-76
2023/09/25 05:31:31;;;;;;;9.40;3.75;;;;;;;12.68;91.07;102087.44;6108183;19;20014;-77
2023/09/25 05:33:36;;;;;;;6.18;2.72;;;;;;;12.70;90.92;102092.69;6107201;19;20137;-77
2023/09/25 05:35:48;;;;;;;10.82;3.13;;;;;;;12.65;91.37;102084.91;6108881;19;20007;-76
2023/09/25 05:37:58;;;;;;;6.57;3.00;;;;;;;12.66;91.25;102089.25;6104476;19;20011;-78
2023/09/25 05:40:04;;;;;;;6.13;3.03;;;;;;;12.65;90.86;102090.19;6104496;19;20015;-77
2023/09/25 05:42:10;;;;;;;6.95;2.92;;;;;;;12.62;91.46;102100.81;6082093;19;20007;-77
2023/09/25 05:44:17;;;;;;;6.88;2.83;;;;;;;12.62;91.85;102090.28;6085209;19;20014;-77
2023/09/25 05:46:30;;;;;;;9.15;3.30;;;;;;;12.65;91.95;102105.16;6108238;19;20107;-76
2023/09/25 05:48:41;;;;;;;8.60;2.85;;;;;;;12.67;91.44;102092.78;6105069;19;20032;-78
2023/09/25 05:50:50;;;;;;;9.30;2.78;;;;;;;12.64;91.86;102104.28;6109735;19;20020;-78
2023/09/25 05:53:00;;;;;;;7.13;2.72;;;;;;;12.60;92.48;102112.31;6108837;19;20006;-77
2023/09/25 05:55:07;;;;;;;5.68;2.67;;;;;;;12.64;92.00;102106.06;6114667;19;20006;-77
2023/09/25 05:57:15;;;;;;;4.90;2.63;;;;;;;12.61;92.64;102107.03;6115451;19;20063;-77
2023/09/25 05:59:21;;;;;;;5.88;3.08;;;;;;;12.65;92.29;102098.09;6119968;19;20011;-78
2023/09/25 06:01:29;;;;;;;8.82;3.20;;;;;;;12.67;92.14;102098.91;6122241;19;20027;-78
2023/09/25 06:03:35;;;;;;;8.07;3.08;;;;;;;12.64;92.54;102099.00;6121939;19;20020;-76
2023/09/25 06:05:45;;;;;;;7.18;3.30;;;;;;;12.61;92.50;102088.56;6122589;19;20158;-77
2023/09/25 06:07:52;;;;;;;6.75;2.97;;;;;;;12.64;93.27;102084.97;6121263;19;20010;-76
2023/09/25 06:10:01;;;;;;;8.23;3.13;;;;;;;12.64;92.99;102093.75;6114312;19;20014;-77
2023/09/25 06:12:08;;;;;;;5.82;3.25;;;;;;;12.65;92.83;102099.88;6110658;19;20014;-78
2023/09/25 06:14:13;;;;;;;9.15;3.70;;;;;;;12.68;92.74;102108.53;6111637;19;20021;-77
2023/09/25 06:16:19;;;;;;;8.30;3.50;;;;;;;12.70;92.76;102103.25;6108031;19;20033;-77
2023/09/25 06:18:21;;;;;;;6.75;3.08;;;;;;;12.75;92.69;102109.25;6106833;19;20511;-78
2023/09/25 06:20:29;;;;;;;9.43;3.42;;;;;;;12.73;92.35;102114.56;6107496;19;20021;-78
2023/09/25 06:22:37;;;;;;;9.93;3.58;;;;;;;12.78;92.06;102106.50;6108071;19;20154;-78
2023/09/25 06:25:00;;;;;;;7.22;2.72;;;;;;;12.81;91.98;102100.28;6107000;19;20012;-75
2023/09/25 06:27:05;;;;;;;8.40;3.50;;;;;;;12.83;92.31;102107.25;6101350;19;20031;-75
2023/09/25 06:29:12;;;;;;;5.95;3.22;;;;;;;12.86;92.38;102104.50;6105723;19;20396;-78
2023/09/25 06:31:18;;;;;;;8.10;3.00;;;;;;;12.89;91.67;102107.06;6106370;19;20041;-79
2023/09/25 06:33:23;;;;;;;7.05;3.25;;;;;;;12.91;91.94;102113.16;6104618;19;20010;-77
2023/09/25 06:35:38;;;;;;;7.43;3.40;;;;;;;12.93;91.79;102111.34;6104449;19;20126;-77
2023/09/25 06:37:44;;;;;;;7.85;3.10;;;;;;;12.98;91.86;102119.13;6105533;19;20454;-79
2023/09/25 06:39:49;;;;;;;8.90;3.40;;;;;;;12.98;91.84;102129.69;6104959;19;20046;-78
2023/09/25 06:42:00;;;;;;;10.70;3.75;;;;;;;13.06;91.69;102127.69;6101708;19;20358;-77
2023/09/25 06:44:12;;;;;;;6.30;3.30;;;;;;;13.08;91.33;102131.09;6100533;19;20018;-78
2023/09/25 06:46:25;;;;;;;9.52;2.97;;;;;;;13.09;91.29;102132.84;6101808;19;20443;-79
2023/09/25 06:48:50;;;;;;;9.88;3.63;;;;;;;13.14;91.82;102130.94;6084230;19;20014;-78
2023/09/25 06:50:56;;;;;;;7.55;3.20;;;;;;;13.20;91.39;102136.94;6103662;19;20010;-78
2023/09/25 06:53:02;;;;;;;7.00;3.83;;;;;;;13.21;90.60;102142.16;6099393;19;20002;-78
2023/09/25 06:55:11;;;;;;;7.90;3.30;;;;;;;13.34;90.33;102140.91;6104046;19;20018;-76
2023/09/25 06:57:20;;;;;;;5.72;3.13;;;;;;;13.31;90.37;102133.09;6103843;19;20041;-77
2023/09/25 06:59:26;;;;;;;6.68;3.20;;;;;;;13.35;90.15;102139.16;6102337;19;20507;-77
2023/09/25 07:01:33;;;;;;;8.90;3.95;;;;;;;13.38;90.06;102144.31;6104340;19;20129;-76
2023/09/25 07:03:47;;;;;;;8.73;3.33;;;;;;;13.43;90.56;102139.78;6104703;19;20390;-79
2023/09/25 07:05:53;;;;;;;8.60;3.30;;;;;;;13.50;90.13;102141.28;6100746;19;20059;-77
2023/09/25 07:08:12;;;;;;;10.18;3.58;;;;;;;13.52;89.36;102136.81;6104574;19;20423;-76
2023/09/25 07:10:19;;;;;;;6.45;3.22;;;;;;;13.56;89.91;102138.47;6100924;19;20372;-77
2023/09/25 07:12:27;;;;;;;7.95;3.45;;;;;;;13.58;89.31;102128.69;6102603;19;20022;-77
2023/09/25 07:14:29;;;;;;;6.75;3.67;;;;;;;13.63;89.39;102128.53;6101760;19;20015;-77
2023/09/25 07:16:35;;;;;;;;;;;;;;;13.64;89.04;102132.03;6106149;19;20022;-77
2023/09/25 07:18:43;;;;;;;10.68;3.80;;;;;;;13.70;89.22;102132.72;6104009;19;19921;-77
2023/09/25 07:21:00;;;;;;;8.38;3.75;;;;;;;13.76;88.32;102132.50;6104150;19;20010;-76
2023/09/25 07:23:07;;;;;;;9.55;3.30;;;;;;;13.93;87.64;102136.34;6102862;19;20015;-78
2023/09/25 07:25:12;;;;;;;11.50;3.40;;;;;;;13.96;87.97;102136.28;6103528;19;20102;-78
2023/09/25 07:27:20;;;;;;;6.53;3.30;;;;;;;14.12;87.35;102133.97;6102305;19;20732;-78
2023/09/25 07:29:30;;;;;;;6.13;3.22;;;;;;;14.13;86.43;102127.75;6103017;19;20010;-76
2023/09/25 07:31:47;;;;;;;8.15;3.42;;;;;;;14.23;85.87;102130.03;6105038;19;20078;-76
2023/09/25 07:34:01;;;;;;;7.15;3.78;;;;;;;14.37;85.89;102137.47;6102177;19;20790;-77
2023/09/25 07:36:09;;;;;;;8.98;3.90;;;;;;;14.42;85.44;102129.38;6102533;19;20043;-78
2023/09/25 07:38:16;;;;;;;11.90;3.75;;;;;;;14.45;85.82;102130.13;6101914;19;20046;-76
2023/09/25 07:40:22;;;;;;;6.70;3.47;;;;;;;14.45;85.41;102116.88;6102180;19;20007;-78
2023/09/25 07:42:29;;;;;;;6.93;3.20;;;;;;;14.43;85.08;102117.91;6102835;19;20090;-77
2023/09/25 07:44:38;;;;;;;9.25;3.67;;;;;;;14.36;84.22;102119.88;6102758;19;20026;-77
2023/09/25 07:46:47;;;;;;;6.35;3.42;;;;;;;14.53;85.47;102115.78;6099710;19;20514;-77
2023/09/25 07:48:53;;;;;;;9.63;3.60;;;;;;;14.61;84.89;102108.44;6103972;19;20541;-77
2023/09/25 07:51:01;;;;;;;10.25;3.55;;;;;;;14.55;83.65;102109.53;6103848;19;20403;-77
2023/09/25 07:53:08;;;;;;;6.45;2.97;;;;;;;14.75;84.00;102105.28;6097103;19;20507;-77
2023/09/25 07:55:14;;;;;;;9.50;3.50;;;;;;;14.88;83.57;102107.41;6102067;19;20023;-77
2023/09/25 07:57:24;;;;;;;9.65;3.50;;;;;;;14.96;83.80;102111.56;6103316;19;20018;-76
2023/09/25 07:59:29;;;;;;;8.15;3.38;;;;;;;15.14;83.08;102113.47;6100988;19;20018;-76
2023/09/25 08:01:39;;;;;;;10.77;3.78;;;;;;;15.04;83.27;102115.63;6102087;19;20024;-77
2023/09/25 08:03:46;;;;;;;8.25;3.20;;;;;;;15.06;83.27;102110.25;6105745;19;20502;-76
2023/09/25 08:05:52;;;;;;;8.93;3.47;;;;;;;15.06;82.74;102113.78;6105595;19;20026;-77
2023/09/25 08:07:57;;;;;;;6.38;3.28;;;;;;;15.24;82.29;102108.66;6108714;19;20066;-77
2023/09/25 08:10:00;;;;;;;8.48;3.83;;;;;;;15.24;81.62;102111.31;6109705;19;20021;-76
2023/09/25 08:12:07;;;;;;;;;;;;;;;15.25;81.73;102116.56;6111814;19;20014;-76
2023/09/25 08:14:15;;;;;;;10.15;3.67;;;;;;;15.39;81.37;102118.66;6089414;19;19927;-77
2023/09/25 08:16:22;;;;;;;8.52;3.55;;;;;;;15.41;80.85;102115.94;6111159;19;20020;-76
2023/09/25 08:18:31;;;;;;;6.75;3.72;;;;;;;15.46;80.56;102121.94;6109265;19;20011;-76
2023/09/25 08:20:36;;;;;;;7.88;3.45;;;;;;;15.56;79.67;102112.66;6112085;19;20418;-77
2023/09/25 08:22:41;;;;;;;8.70;3.45;;;;;;;15.58;79.74;102130.22;6112472;19;20019;-77
2023/09/25 08:24:46;;;;;;;7.93;3.13;;;;;;;15.80;79.15;102130.25;6112192;19;20011;-78
2023/09/25 08:26:50;;;;;;;7.82;3.28;;;;;;;15.82;80.23;102121.34;6112030;19;20018;-79
2023/09/25 08:28:57;;;;;;;7.63;3.30;;;;;;;15.94;79.63;102124.34;6089317;19;20417;-77
2023/09/25 08:31:02;;;;;;;5.80;3.10;;;;;;;16.14;79.27;102118.19;6109366;19;20011;-76
2023/09/25 08:33:07;;;;;;;9.55;3.58;;;;;;;16.28;78.23;102124.69;6106575;19;20014;-78
2023/09/25 08:35:15;;;;;;;8.80;3.88;;;;;;;16.29;78.26;102123.75;6106812;19;20380;-76
2023/09/25 08:37:22;;;;;;;10.77;3.60;;;;;;;16.45;77.05;102138.06;6106323;19;20013;-77
2023/09/25 08:39:30;;;;;;;7.78;3.47;;;;;;;16.36;76.89;102135.81;6106258;19;20592;-77
2023/09/25 08:41:38;;;;;;;8.88;3.55;;;;;;;16.91;76.55;102141.31;6108357;19;20038;-76
2023/09/25 08:43:46;;;;;;;10.55;4.45;;;;;;;17.02;75.41;102147.00;6108285;19;20310;-78
2023/09/25 08:45:52;;;;;;;10.43;3.40;;;;;;;16.76;75.43;102142.84;6106291;19;20015;-76
2023/09/25 08:48:01;;;;;;;11.70;3.35;;;;;;;17.04;75.50;102141.63;6109228;19;20025;-75
2023/09/25 08:50:08;;;;;;;11.60;3.75;;;;;;;17.28;74.50;102136.94;6108404;19;20011;-76
2023/09/25 08:52:15;;;;;;;8.65;3.53;;;;;;;16.82;74.58;102131.13;6107565;19;20014;-77
2023/09/25 08:54:20;;;;;;;7.25;3.28;;;;;;;17.07;75.09;102133.50;6107835;19;20025;-77
2023/09/25 08:56:24;;;;;;;7.07;3.55;;;;;;;17.46;74.20;102145.81;6107203;19;20706;-75
2023/09/25 08:58:34;;;;;;;6.80;3.70;;;;;;;17.68;73.52;102138.50;6084305;19;20445;-78
2023/09/25 09:00:45;;;;;;;11.00;3.83;;;;;;;17.93;73.33;102137.28;6110415;19;20045;-79
2023/09/25 09:02:50;;;;;;;7.05;3.55;;;;;;;17.93;72.61;102130.19;6111385;19;20349;-77
2023/09/25 09:05:02;;;;;;;8.23;3.50;;;;;;;18.16;71.26;102147.59;6112407;19;20014;-77
2023/09/25 09:07:08;;;;;;;11.15;3.83;;;;;;;18.25;70.84;102138.31;6119071;19;20439;-77
2023/09/25 09:09:18;;;;;;;8.60;3.88;;;;;;;18.01;70.96;102144.88;6115288;19;20013;-77
2023/09/25 09:11:24;;;;;;;9.00;3.33;;;;;;;18.19;69.84;102141.28;6114377;19;20018;-77
2023/09/25 09:13:29;;;;;;;10.75;3.40;;;;;;;18.18;69.10;102147.53;6120277;19;20015;-77
2023/09/25 09:15:38;;;;;;;8.93;3.53;;;;;;;18.26;70.47;102140.03;6116095;19;20007;-77
2023/09/25 09:17:43;;;;;;;9.00;3.60;;;;;;;18.51;70.57;102141.38;6123664;19;20014;-77
2023/09/25 09:19:55;;;;;;;8.93;3.70;;;;;;;18.56;70.20;102144.66;6124598;19;20042;-77
2023/09/25 09:22:12;;;;;;;7.93;3.47;;;;;;;18.64;69.46;102134.47;6116921;19;20031;-77
2023/09/25 09:24:24;;;;;;;10.65;3.30;;;;;;;18.69;68.63;102140.41;6112935;19;20014;-78
2023/09/25 09:26:36;;;;;;;8.35;3.55;;;;;;;18.21;68.74;102134.94;6115366;19;20382;-76
2023/09/25 09:28:42;;;;;;;9.32;3.88;;;;;;;18.24;69.89;102141.03;6108848;19;20469;-76
2023/09/25 09:30:51;;;;;;;7.60;3.17;;;;;;;18.51;70.44;102150.25;6109819;19;19998;-77
2023/09/25 09:32:58;;;;;;;7.53;3.45;;;;;;;18.79;69.45;102154.97;6109485;19;20614;-77
2023/09/25 09:35:08;;;;;;;5.53;3.38;;;;;;;18.89;68.21;102151.81;6103876;19;20414;-77
2023/09/25 09:37:13;;;;;;;8.82;3.47;;;;;;;18.65;70.15;102153.03;6106974;19;20046;-76
2023/09/25 09:39:26;;;;;;;7.90;3.10;;;;;;;18.98;68.36;102157.47;6105954;19;20324;-76
2023/09/25 09:41:34;;;;;;;9.80;3.72;;;;;;;19.14;67.42;102153.97;6101373;19;20009;-76
2023/09/25 09:43:43;;;;;;;12.75;3.63;;;;;;;19.41;68.25;102155.09;6105748;19;20042;-77
2023/09/25 09:45:51;;;;;;;7.72;3.08;;;;;;;19.71;67.27;102148.97;6104332;19;20118;-77
2023/09/25 09:48:00;;;;;;;11.85;4.03;;;;;;;19.63;66.78;102152.06;6104284;19;20021;-77
2023/09/25 09:50:08;;;;;;;8.10;3.50;;;;;;;19.69;67.25;102157.06;6106904;19;20093;-78
2023/09/25 09:52:17;;;;;;;8.57;3.45;;;;;;;20.09;66.64;102151.19;6101746;19;20019;-77
2023/09/25 09:54:28;;;;;;;8.48;3.33;;;;;;;20.47;65.56;102148.88;6103809;19;20074;-75